Time;durP1;ratioP1;P1;durP2;ratioP2;P2;SDS_P1;SDS_P2;PMS_P1;PMS_P2;Temp;Humidity;BMP_temperature;BMP_pressure;BME280_temperature;BME280_humidity;BME280_pressure;Samples;Min_cycle;Max_cycle;Signal;HPM_P1;HPM_P2
2023/01/09 00:02:12;;;;;;;14.50;13.57;;;9.40;99.90;;;;;;10310926;28;20258;-84
2023/01/09 00:07:14;;;;;;;15.63;14.63;;;9.50;99.90;;;;;;10316502;28;20207;-83
2023/01/09 00:12:16;;;;;;;14.67;13.77;;;9.50;99.90;;;;;;10349705;28;20195;-82
2023/01/09 00:17:19;;;;;;;15.10;14.10;;;9.60;99.90;;;;;;10299275;28;20238;-83
2023/01/09 00:22:22;;;;;;;13.13;12.33;;;9.70;99.90;;;;;;10316418;28;20576;-82
2023/01/09 00:27:24;;;;;;;12.00;11.30;;;9.70;99.90;;;;;;10306632;28;20292;-83
2023/01/09 00:32:28;;;;;;;12.03;11.33;;;9.70;99.90;;;;;;10280778;28;20200;-83
2023/01/09 00:37:30;;;;;;;9.00;8.60;;;9.70;99.90;;;;;;10348478;28;20295;-83
2023/01/09 00:42:35;;;;;;;9.40;8.90;;;9.70;99.90;;;;;;10277270;28;20695;-84
2023/01/09 00:47:43;;;;;;;8.70;8.30;;;9.80;99.90;;;;;;10330466;28;20196;-82
2023/01/09 00:52:46;;;;;;;8.37;7.97;;;9.70;99.90;;;;;;10309808;28;20186;-82
2023/01/09 00:57:49;;;;;;;9.10;8.40;;;9.80;99.90;;;;;;10304996;28;20198;-83
2023/01/09 01:02:52;;;;;;;8.27;7.87;;;9.70;99.90;;;;;;10291466;28;20582;-83
2023/01/09 01:07:54;;;;;;;8.00;7.60;;;9.70;99.90;;;;;;10274903;28;20202;-83
2023/01/09 01:12:56;;;;;;;8.10;7.70;;;9.70;99.90;;;;;;10272866;28;20239;-82
2023/01/09 01:18:00;;;;;;;7.33;7.03;;;9.70;99.90;;;;;;10272331;28;20204;-83
2023/01/09 01:23:02;;;;;;;6.50;6.27;;;9.80;99.90;;;;;;10284869;28;20231;-82
2023/01/09 01:28:04;;;;;;;5.83;5.63;;;9.80;99.90;;;;;;10286173;28;20231;-81
2023/01/09 01:33:08;;;;;;;6.47;6.27;;;9.80;99.90;;;;;;10273723;28;20219;-83
2023/01/09 01:38:10;;;;;;;6.00;5.80;;;9.80;99.90;;;;;;10304629;28;20274;-82
2023/01/09 01:43:13;;;;;;;5.53;5.33;;;9.80;99.90;;;;;;10343761;28;20251;-82
2023/01/09 01:48:20;;;;;;;5.50;5.30;;;9.80;99.90;;;;;;10331957;28;20282;-82
2023/01/09 01:53:26;;;;;;;4.50;4.40;;;9.80;99.90;;;;;;10326864;28;20207;-81
2023/01/09 01:58:29;;;;;;;5.10;5.00;;;9.80;99.90;;;;;;10304914;28;20227;-82
2023/01/09 02:03:34;;;;;;;5.27;5.07;;;9.70;99.90;;;;;;10350380;28;20223;-82
2023/01/09 02:08:36;;;;;;;5.90;5.60;;;9.70;99.90;;;;;;10342736;28;20219;-82
2023/01/09 02:13:39;;;;;;;5.60;5.20;;;9.70;99.90;;;;;;10305574;28;20246;-82
2023/01/09 02:18:47;;;;;;;6.53;6.23;;;9.70;99.90;;;;;;10289091;28;20238;-82
2023/01/09 02:24:31;;;;;;;5.17;4.97;;;9.70;99.90;;;;;;10302334;28;20239;-81
2023/01/09 02:30:09;;;;;;;5.40;5.23;;;9.70;99.90;;;;;;10284058;28;20215;-81
2023/01/09 02:35:24;;;;;;;4.77;4.57;;;9.80;99.90;;;;;;10280307;28;20250;-81
2023/01/09 02:40:33;;;;;;;14.60;11.70;;;9.80;99.90;;;;;;10326184;28;20676;-82
2023/01/09 02:45:36;;;;;;;3.63;3.53;;;9.90;99.90;;;;;;10358347;28;20227;-81
2023/01/09 02:50:44;;;;;;;3.90;3.80;;;9.90;99.90;;;;;;10332096;28;20198;-81
2023/01/09 02:56:03;;;;;;;3.90;3.57;;;9.80;99.90;;;;;;10335069;28;20219;-81
2023/01/09 03:01:21;;;;;;;3.77;3.30;;;9.80;99.90;;;;;;10307700;28;20226;-81
2023/01/09 03:06:30;;;;;;;5.20;4.90;;;9.70;99.90;;;;;;10339197;28;20215;-81
2023/01/09 03:11:37;;;;;;;4.27;4.03;;;9.60;99.90;;;;;;10353512;28;20203;-82
2023/01/09 03:16:45;;;;;;;7.87;5.40;;;9.60;99.90;;;;;;10290959;28;20224;-81
2023/01/09 03:21:47;;;;;;;7.30;5.30;;;9.60;99.90;;;;;;10303697;28;20749;-81
2023/01/09 03:26:50;;;;;;;5.50;5.30;;;9.60;99.90;;;;;;10322254;28;20223;-81
2023/01/09 03:31:53;;;;;;;5.53;5.40;;;9.50;99.90;;;;;;10307412;28;20192;-81
2023/01/09 03:36:55;;;;;;;6.60;6.40;;;9.40;99.90;;;;;;10331880;28;20679;-82
2023/01/09 03:41:57;;;;;;;7.20;6.80;;;9.30;99.90;;;;;;10342658;28;20226;-82
2023/01/09 03:47:01;;;;;;;6.80;6.60;;;9.20;99.90;;;;;;10347661;28;20228;-82
2023/01/09 03:52:03;;;;;;;7.40;7.20;;;9.10;99.90;;;;;;10355594;28;20191;-83
2023/01/09 03:57:05;;;;;;;7.20;7.00;;;9.20;99.90;;;;;;10346025;28;20219;-83
2023/01/09 04:02:08;;;;;;;7.40;7.10;;;9.20;99.90;;;;;;10317978;28;20282;-82
2023/01/09 04:07:11;;;;;;;5.53;5.33;;;9.30;99.90;;;;;;10348841;28;20207;-82
2023/01/09 04:12:13;;;;;;;8.30;8.00;;;9.40;99.90;;;;;;10351562;28;20196;-82
2023/01/09 04:17:16;;;;;;;7.40;7.00;;;9.50;99.90;;;;;;10316269;28;20562;-82
2023/01/09 04:22:18;;;;;;;7.40;7.10;;;9.50;99.90;;;;;;10330768;28;20267;-82
2023/01/09 04:27:20;;;;;;;7.50;7.30;;;9.40;99.90;;;;;;10311423;28;20220;-82
2023/01/09 04:32:26;;;;;;;7.23;7.03;;;9.40;99.90;;;;;;10293169;28;20199;-82
2023/01/09 04:37:28;;;;;;;4.47;4.37;;;9.30;99.90;;;;;;10319768;28;20305;-83
2023/01/09 04:42:30;;;;;;;6.33;5.97;;;9.20;99.90;;;;;;10346897;28;20541;-83
2023/01/09 04:47:33;;;;;;;5.40;5.20;;;9.10;99.90;;;;;;10311571;28;20239;-83
2023/01/09 04:52:37;;;;;;;5.80;5.60;;;8.90;99.90;;;;;;10287437;28;20314;-83
2023/01/09 04:57:39;;;;;;;6.40;6.10;;;8.80;99.90;;;;;;10304480;28;20239;-83
2023/01/09 05:02:43;;;;;;;6.00;5.80;;;8.80;99.90;;;;;;10300223;28;20295;-81
2023/01/09 05:07:45;;;;;;;6.20;6.00;;;8.80;99.90;;;;;;10302396;28;20216;-84
2023/01/09 05:12:47;;;;;;;5.80;5.50;;;8.80;99.90;;;;;;10317115;28;20215;-83
2023/01/09 05:17:50;;;;;;;5.63;5.43;;;8.90;99.90;;;;;;10328878;28;20195;-83
2023/01/09 05:22:52;;;;;;;5.37;5.17;;;8.90;99.90;;;;;;10328263;28;20223;-84
2023/01/09 05:27:55;;;;;;;5.90;5.57;;;8.90;99.90;;;;;;10318851;28;20203;-85
2023/01/09 05:33:01;;;;;;;5.37;5.00;;;8.90;99.90;;;;;;10294576;28;20219;-84
2023/01/09 05:38:03;;;;;;;4.20;4.10;;;9.00;99.90;;;;;;10343686;28;20177;-83
2023/01/09 05:43:05;;;;;;;4.33;4.03;;;9.00;99.90;;;;;;10327418;28;20302;-82
2023/01/09 05:48:08;;;;;;;4.40;4.20;;;9.00;99.90;;;;;;10301806;28;20203;-81
2023/01/09 05:53:11;;;;;;;4.40;4.20;;;8.80;99.90;;;;;;10306899;28;20250;-81
2023/01/09 05:58:13;;;;;;;7.40;6.70;;;8.70;99.90;;;;;;10330023;28;20655;-82
2023/01/09 06:03:16;;;;;;;3.27;3.17;;;8.70;99.90;;;;;;10304965;28;20227;-82
2023/01/09 06:08:18;;;;;;;3.07;2.87;;;8.70;99.90;;;;;;10291123;28;20223;-82
2023/01/09 06:13:20;;;;;;;8.40;6.27;;;8.60;99.90;;;;;;10289494;28;20274;-82
2023/01/09 06:18:24;;;;;;;3.57;3.30;;;8.50;99.90;;;;;;10306173;28;20227;-83
2023/01/09 06:23:26;;;;;;;2.40;2.23;;;8.40;99.90;;;;;;10292962;28;20219;-82
2023/01/09 06:28:28;;;;;;;2.47;2.37;;;8.40;99.90;;;;;;10315477;28;20250;-83
2023/01/09 06:33:32;;;;;;;19.67;12.23;;;8.30;99.90;;;;;;10283355;28;20219;-82
2023/01/09 06:38:34;;;;;;;4.53;4.13;;;8.10;99.90;;;;;;10346225;28;20203;-82
2023/01/09 06:43:36;;;;;;;3.40;3.20;;;8.10;99.90;;;;;;10334067;28;20235;-82
2023/01/09 06:48:39;;;;;;;2.13;1.90;;;8.00;99.90;;;;;;10318469;28;20195;-82
2023/01/09 06:53:41;;;;;;;3.00;2.90;;;7.90;99.90;;;;;;10340257;28;20230;-82
2023/01/09 06:58:43;;;;;;;3.30;3.10;;;7.90;99.90;;;;;;10283454;28;20208;-82
2023/01/09 07:03:48;;;;;;;3.23;2.93;;;7.90;99.90;;;;;;10283224;28;20722;-82
2023/01/09 07:08:50;;;;;;;3.70;3.40;;;7.90;99.90;;;;;;10284774;28;20598;-82
2023/01/09 07:13:52;;;;;;;4.67;2.90;;;7.90;99.90;;;;;;10306496;28;20211;-82
2023/01/09 07:18:55;;;;;;;3.00;2.00;;;8.00;99.90;;;;;;10325449;28;20245;-83
2023/01/09 07:23:57;;;;;;;2.20;2.00;;;8.00;99.90;;;;;;10351099;28;20219;-82
2023/01/09 07:28:59;;;;;;;2.10;1.60;;;8.10;99.90;;;;;;10307963;28;20212;-82
2023/01/09 07:34:03;;;;;;;2.33;2.17;;;8.10;99.90;;;;;;10316625;28;20208;-82
2023/01/09 07:39:05;;;;;;;3.20;2.33;;;8.10;99.90;;;;;;10306002;28;20259;-82
2023/01/09 07:44:08;;;;;;;2.60;2.50;;;8.10;99.90;;;;;;10290451;28;20222;-82
2023/01/09 07:49:16;;;;;;;2.40;2.20;;;8.00;99.90;;;;;;10280676;28;20200;-82
2023/01/09 07:54:18;;;;;;;4.40;2.60;;;8.00;99.90;;;;;;10314461;28;20274;-83
2023/01/09 07:59:20;;;;;;;2.47;1.93;;;8.00;99.90;;;;;;10308735;28;20188;-83
2023/01/09 08:04:24;;;;;;;4.40;2.13;;;8.00;99.90;;;;;;10350227;28;20246;-82
2023/01/09 08:09:29;;;;;;;2.30;2.13;;;7.90;99.90;;;;;;10330287;28;20655;-81
2023/01/09 08:14:32;;;;;;;2.23;2.03;;;8.00;99.90;;;;;;10344072;28;20245;-80
2023/01/09 08:19:35;;;;;;;2.30;2.20;;;8.00;99.90;;;;;;10301248;28;20757;-82
2023/01/09 08:24:37;;;;;;;2.10;2.00;;;8.00;99.90;;;;;;10304963;28;20212;-82
2023/01/09 08:29:39;;;;;;;5.73;3.23;;;8.00;99.90;;;;;;10326163;28;20223;-81
2023/01/09 08:34:43;;;;;;;3.53;2.27;;;8.00;99.90;;;;;;10345751;28;20211;-82
2023/01/09 08:39:47;;;;;;;2.40;2.30;;;8.10;99.90;;;;;;10329407;28;20573;-82
2023/01/09 08:50:12;;;;;;;3.73;2.70;;;8.20;99.90;;;;;;10303106;28;20252;-82
2023/01/09 09:00:41;;;;;;;3.53;1.87;;;8.30;99.90;;;;;;10289077;28;20187;-82
2023/01/09 09:05:48;;;;;;;2.60;1.77;;;8.30;99.90;;;;;;10273027;28;20216;-85
2023/01/09 09:10:51;;;;;;;2.53;1.87;;;8.40;99.90;;;;;;10304589;28;20212;-83
2023/01/09 09:15:53;;;;;;;3.27;1.70;;;8.50;99.90;;;;;;10289324;28;20212;-84
2023/01/09 09:20:58;;;;;;;4.27;2.50;;;8.60;99.90;;;;;;10290022;28;20567;-84
2023/01/09 09:26:03;;;;;;;4.17;2.60;;;8.60;99.90;;;;;;10285985;28;20208;-85
2023/01/09 09:31:06;;;;;;;3.13;2.40;;;8.70;99.90;;;;;;10287958;28;20199;-84
2023/01/09 09:36:14;;;;;;;3.63;2.47;;;8.70;99.90;;;;;;10279994;28;20216;-80
2023/01/09 09:47:07;;;;;;;3.47;2.17;;;8.80;99.90;;;;;;10304070;28;20493;-80
2023/01/09 09:52:19;;;;;;;3.70;2.67;;;9.00;99.90;;;;;;10311158;28;20242;-80
2023/01/09 09:57:27;;;;;;;3.13;1.77;;;8.90;99.90;;;;;;10287064;28;20262;-84
2023/01/09 10:02:32;;;;;;;4.00;2.60;;;9.10;99.90;;;;;;10304048;28;20211;-81
2023/01/09 10:07:43;;;;;;;4.83;2.53;;;9.30;99.90;;;;;;10284344;28;20254;-81
2023/01/09 10:18:41;;;;;;;2.43;2.13;;;9.70;99.90;;;;;;10275593;28;20194;-82
2023/01/09 10:24:05;;;;;;;3.10;1.90;;;9.80;99.90;;;;;;10278984;28;20215;-80
2023/01/09 10:29:36;;;;;;;5.27;2.20;;;9.70;99.90;;;;;;10322344;28;20195;-80
2023/01/09 10:34:51;;;;;;;4.03;1.90;;;9.80;99.90;;;;;;10290640;28;20693;-82
2023/01/09 10:40:00;;;;;;;2.60;2.20;;;9.90;99.90;;;;;;10266524;28;20253;-81
2023/01/09 10:45:12;;;;;;;2.23;2.03;;;10.00;99.90;;;;;;10263556;28;20228;-82
2023/01/09 10:50:21;;;;;;;3.90;2.90;;;10.10;99.90;;;;;;10271492;28;20243;-82
2023/01/09 10:55:34;;;;;;;3.40;2.20;;;10.10;99.90;;;;;;10367477;23;20265;-82
2023/01/09 11:00:39;;;;;;;4.70;2.47;;;10.10;99.90;;;;;;10405334;28;20226;-84
2023/01/09 11:05:43;;;;;;;4.37;2.20;;;10.00;99.90;;;;;;10403960;28;20225;-81
2023/01/09 11:10:48;;;;;;;3.00;2.43;;;10.00;99.90;;;;;;10425559;28;20205;-81
2023/01/09 11:16:07;;;;;;;2.93;2.47;;;10.00;99.90;;;;;;10412714;28;20264;-81
2023/01/09 11:21:28;;;;;;;6.20;2.27;;;10.10;99.90;;;;;;10430865;28;20198;-81
2023/01/09 11:26:33;;;;;;;6.10;2.13;;;10.20;99.90;;;;;;10417446;28;20233;-80
2023/01/09 11:31:36;;;;;;;4.47;2.87;;;10.30;99.90;;;;;;10437518;28;20210;-81
2023/01/09 11:36:39;;;;;;;3.90;2.50;;;10.30;99.90;;;;;;10441161;28;20201;-80
2023/01/09 11:41:43;;;;;;;3.70;2.17;;;10.50;99.90;;;;;;10463867;28;20202;-79
2023/01/09 11:46:45;;;;;;;3.50;2.53;;;10.50;99.90;;;;;;10466119;28;20201;-81
2023/01/09 11:52:13;;;;;;;3.80;2.57;;;10.50;99.90;;;;;;10435936;28;20201;-81
2023/01/09 11:57:17;;;;;;;4.97;2.00;;;10.30;99.90;;;;;;10408890;28;20245;-81
2023/01/09 12:02:35;;;;;;;2.70;1.90;;;10.30;99.90;;;;;;10425590;28;20700;-83
2023/01/09 12:07:51;;;;;;;5.50;2.63;;;10.30;99.90;;;;;;10409092;28;20194;-83
2023/01/09 12:13:03;;;;;;;3.37;2.50;;;10.30;99.90;;;;;;10424478;28;20280;-81
2023/01/09 12:18:26;;;;;;;4.07;2.83;;;10.20;99.90;;;;;;10425161;28;20229;-83
2023/01/09 12:23:46;;;;;;;4.00;2.93;;;10.10;99.90;;;;;;10406988;28;20221;-83
2023/01/09 12:29:12;;;;;;;4.57;2.30;;;10.30;99.90;;;;;;10400260;28;20197;-83
2023/01/09 12:34:47;;;;;;;3.00;2.30;;;10.50;99.90;;;;;;10425763;28;20677;-83
2023/01/09 12:40:02;;;;;;;6.03;2.70;;;10.60;99.90;;;;;;10423140;28;20213;-83
2023/01/09 12:45:23;;;;;;;4.90;2.63;;;10.70;99.90;;;;;;10441903;28;20217;-82
2023/01/09 12:50:52;;;;;;;4.43;2.60;;;10.80;99.90;;;;;;10436010;28;20217;-83
2023/01/09 12:56:01;;;;;;;2.40;2.20;;;11.00;99.90;;;;;;10437518;28;20292;-82
2023/01/09 13:01:08;;;;;;;3.80;2.73;;;11.00;99.90;;;;;;10413514;28;20198;-82
2023/01/09 13:06:15;;;;;;;4.53;2.10;;;10.90;99.90;;;;;;10425592;28;20255;-81
2023/01/09 13:11:24;;;;;;;2.20;2.00;;;10.90;99.90;;;;;;10446494;28;20205;-81
2023/01/09 13:16:32;;;;;;;2.53;2.20;;;10.80;99.90;;;;;;10446941;28;20244;-82
2023/01/09 13:21:34;;;;;;;1.80;1.70;;;10.90;99.90;;;;;;10432716;28;20186;-81
2023/01/09 13:26:40;;;;;;;2.90;2.30;;;10.90;99.90;;;;;;10430439;28;20260;-82
2023/01/09 13:32:04;;;;;;;2.47;2.27;;;11.00;99.90;;;;;;10427922;28;20269;-81
2023/01/09 13:37:22;;;;;;;4.53;2.17;;;11.00;99.90;;;;;;10445547;28;20221;-82
2023/01/09 13:42:38;;;;;;;2.33;2.13;;;10.80;99.90;;;;;;10444174;28;20225;-82
2023/01/09 13:47:42;;;;;;;2.30;2.20;;;10.60;99.90;;;;;;10437151;28;20286;-81
2023/01/09 13:52:44;;;;;;;2.10;2.00;;;10.50;99.90;;;;;;10418494;28;20202;-81
2023/01/09 13:58:23;;;;;;;1.73;1.63;;;10.40;99.90;;;;;;10420079;28;20202;-81
2023/01/09 14:03:31;;;;;;;3.43;2.00;;;10.30;99.90;;;;;;10417295;28;20225;-81
2023/01/09 14:08:34;;;;;;;2.17;2.07;;;10.30;99.90;;;;;;10436960;28;20190;-82
2023/01/09 14:13:40;;;;;;;1.63;1.53;;;10.30;99.90;;;;;;10437730;28;20340;-81
2023/01/09 14:18:50;;;;;;;2.10;2.00;;;10.30;99.90;;;;;;10419514;28;20201;-80
2023/01/09 14:23:59;;;;;;;2.00;1.80;;;10.30;99.90;;;;;;10418840;28;20250;-81
2023/01/09 14:29:34;;;;;;;3.53;3.20;;;10.30;99.90;;;;;;10445297;28;20202;-82
2023/01/09 14:34:40;;;;;;;1.67;1.60;;;10.30;99.90;;;;;;10407476;28;20244;-81
2023/01/09 14:39:46;;;;;;;2.30;2.10;;;10.40;99.90;;;;;;10419911;28;20658;-82
2023/01/09 14:44:55;;;;;;;2.17;2.07;;;10.30;99.90;;;;;;10443159;28;20230;-81
2023/01/09 14:50:03;;;;;;;1.33;1.23;;;10.20;99.90;;;;;;10446411;28;20220;-81
2023/01/09 14:55:17;;;;;;;2.37;2.10;;;10.10;99.90;;;;;;10423903;28;20239;-81
2023/01/09 15:00:20;;;;;;;2.10;2.00;;;10.00;99.90;;;;;;10453518;28;20209;-81
2023/01/09 15:05:26;;;;;;;2.00;1.87;;;9.90;99.90;;;;;;10445895;28;20221;-81
2023/01/09 15:10:31;;;;;;;1.90;1.80;;;9.90;99.90;;;;;;10431934;28;20229;-81
2023/01/09 15:15:35;;;;;;;5.53;2.30;;;9.90;99.90;;;;;;10451287;28;20300;-82
2023/01/09 15:20:38;;;;;;;2.17;1.57;;;9.80;99.90;;;;;;10433957;28;20186;-82
2023/01/09 15:25:41;;;;;;;2.20;2.00;;;9.70;99.90;;;;;;10448924;28;20230;-80
2023/01/09 15:30:43;;;;;;;4.10;1.90;;;9.70;99.90;;;;;;10447571;28;20198;-82
2023/01/09 15:35:49;;;;;;;3.47;2.10;;;9.80;99.90;;;;;;10447392;28;20229;-82
2023/01/09 15:40:54;;;;;;;3.50;3.30;;;9.90;99.90;;;;;;10447753;28;20244;-80
2023/01/09 15:45:57;;;;;;;3.43;3.23;;;9.90;99.90;;;;;;10446814;28;20209;-82
2023/01/09 15:51:05;;;;;;;2.27;2.07;;;9.90;99.90;;;;;;10446133;28;20201;-81
2023/01/09 15:56:19;;;;;;;2.03;1.83;;;9.90;99.90;;;;;;10445791;28;20225;-82
2023/01/09 16:01:28;;;;;;;1.93;1.83;;;9.90;99.90;;;;;;10433589;28;20200;-82
2023/01/09 16:06:34;;;;;;;3.37;2.83;;;9.90;99.90;;;;;;10436016;28;20244;-82
2023/01/09 16:11:38;;;;;;;2.47;2.27;;;9.80;99.90;;;;;;10436639;28;20194;-80
2023/01/09 16:16:41;;;;;;;2.33;2.23;;;9.50;99.90;;;;;;10418289;28;20301;-80
2023/01/09 16:21:44;;;;;;;3.30;2.80;;;9.30;99.90;;;;;;10438745;28;20678;-82
2023/01/09 16:26:46;;;;;;;2.73;2.53;;;9.20;99.90;;;;;;10425562;28;20232;-79
2023/01/09 16:31:50;;;;;;;2.77;2.57;;;9.00;99.90;;;;;;10435149;28;20257;-80
2023/01/09 16:36:54;;;;;;;1.97;1.50;;;8.80;99.90;;;;;;10439125;28;20222;-79
2023/01/09 16:47:17;;;;;;;2.67;2.30;;;8.60;99.90;;;;;;10435364;28;20225;-80
2023/01/09 16:52:20;;;;;;;2.30;2.20;;;8.50;99.90;;;;;;10436718;28;20208;-82
2023/01/09 16:57:22;;;;;;;2.77;2.57;;;8.60;99.90;;;;;;10434449;28;20264;-80
2023/01/09 17:02:24;;;;;;;2.20;2.00;;;8.50;99.90;;;;;;10442099;28;20256;-79
2023/01/09 17:07:29;;;;;;;2.43;2.23;;;8.60;99.90;;;;;;10444805;28;20480;-80
2023/01/09 17:12:32;;;;;;;1.97;1.83;;;8.60;99.90;;;;;;10446519;28;20198;-80
2023/01/09 17:17:36;;;;;;;5.80;5.20;;;8.70;99.90;;;;;;10470170;28;20230;-80
2023/01/09 17:22:39;;;;;;;3.20;2.90;;;8.60;99.90;;;;;;10455433;28;20192;-80
2023/01/09 17:33:01;;;;;;;4.10;2.40;;;8.60;99.90;;;;;;10448272;28;20214;-80
2023/01/09 17:38:04;;;;;;;2.20;2.10;;;8.60;99.90;;;;;;10447191;28;20205;-80
2023/01/09 17:43:06;;;;;;;2.73;2.53;;;8.50;99.90;;;;;;10443741;28;20244;-81
2023/01/09 17:48:17;;;;;;;2.50;2.40;;;8.50;99.90;;;;;;10412828;28;20201;-81
2023/01/09 17:53:21;;;;;;;2.10;2.00;;;8.60;99.90;;;;;;10425864;28;20793;-81
2023/01/09 17:58:26;;;;;;;3.00;2.80;;;8.60;99.90;;;;;;10425306;28;20549;-81
2023/01/09 18:03:32;;;;;;;2.57;2.47;;;8.70;99.90;;;;;;10431910;28;20220;-81
2023/01/09 18:08:35;;;;;;;2.30;2.10;;;8.70;99.90;;;;;;10412777;28;20281;-81
2023/01/09 18:13:37;;;;;;;2.20;2.10;;;8.70;99.90;;;;;;10423974;28;20206;-81
2023/01/09 18:18:40;;;;;;;8.60;7.57;;;8.70;99.90;;;;;;10423361;28;20204;-80
2023/01/09 18:23:43;;;;;;;2.70;2.57;;;8.80;99.90;;;;;;10422116;28;20222;-81
2023/01/09 18:28:46;;;;;;;1.90;1.80;;;8.80;99.90;;;;;;10424341;28;20202;-81
2023/01/09 18:33:50;;;;;;;1.60;1.47;;;8.80;99.90;;;;;;10398360;28;20272;-81
2023/01/09 18:38:54;;;;;;;2.30;2.10;;;8.70;99.90;;;;;;10381016;28;20226;-81
2023/01/09 18:43:57;;;;;;;2.40;2.30;;;8.70;99.90;;;;;;10383078;28;20213;-83
2023/01/09 18:49:01;;;;;;;2.50;2.30;;;8.70;99.90;;;;;;10385608;28;20616;-83
2023/01/09 18:54:07;;;;;;;3.37;3.07;;;8.60;99.90;;;;;;10421429;28;20252;-82
2023/01/09 18:59:10;;;;;;;3.57;3.27;;;8.60;99.90;;;;;;10405009;28;20201;-83
2023/01/09 19:04:12;;;;;;;3.07;2.87;;;8.60;99.90;;;;;;10420487;28;20237;-82
2023/01/09 19:09:15;;;;;;;2.70;2.60;;;8.60;99.90;;;;;;10404173;28;20202;-80
2023/01/09 19:14:17;;;;;;;2.17;2.07;;;8.60;99.90;;;;;;10420038;28;20202;-83
2023/01/09 19:19:22;;;;;;;2.37;2.20;;;8.60;99.90;;;;;;10423808;28;20200;-81
2023/01/09 19:24:26;;;;;;;2.67;2.57;;;8.50;99.90;;;;;;10429752;28;20450;-80
2023/01/09 19:29:29;;;;;;;2.80;2.60;;;8.50;99.90;;;;;;10420729;28;20712;-80
2023/01/09 19:34:31;;;;;;;2.90;2.70;;;8.50;99.90;;;;;;10422304;28;20217;-82
2023/01/09 19:39:34;;;;;;;2.53;2.43;;;8.40;99.90;;;;;;10424264;28;20248;-82
2023/01/09 19:44:36;;;;;;;2.40;2.30;;;8.40;99.90;;;;;;10423669;28;20226;-80
2023/01/09 19:49:38;;;;;;;4.27;3.97;;;8.40;99.90;;;;;;10438332;28;20245;-80
2023/01/09 19:54:43;;;;;;;2.77;2.60;;;8.30;99.90;;;;;;10419867;28;20229;-81
2023/01/09 19:59:46;;;;;;;2.10;2.07;;;8.20;99.90;;;;;;10436002;28;20288;-79
2023/01/09 20:04:48;;;;;;;3.27;3.07;;;8.10;99.90;;;;;;10434984;28;20225;-82
2023/01/09 20:09:51;;;;;;;2.33;2.23;;;8.10;99.90;;;;;;10432085;28;20174;-82
2023/01/09 20:14:53;;;;;;;1.90;1.80;;;8.10;99.90;;;;;;10405811;28;20215;-80
2023/01/09 20:19:55;;;;;;;3.40;3.20;;;8.10;99.90;;;;;;10422084;28;20190;-79
2023/01/09 20:24:59;;;;;;;4.03;3.73;;;8.00;99.90;;;;;;10437067;28;20221;-78
2023/01/09 20:30:01;;;;;;;2.60;2.50;;;8.10;99.90;;;;;;10436564;28;20170;-79
2023/01/09 20:35:03;;;;;;;3.47;3.27;;;8.10;99.90;;;;;;10436088;28;20206;-79
2023/01/09 20:40:08;;;;;;;2.07;1.97;;;8.20;99.90;;;;;;10435774;28;20226;-79
2023/01/09 20:45:10;;;;;;;2.47;2.37;;;8.20;99.90;;;;;;10415472;28;20561;-80
2023/01/09 20:50:12;;;;;;;2.30;2.20;;;8.20;99.90;;;;;;10435136;28;20190;-79
2023/01/09 20:55:16;;;;;;;2.70;2.60;;;8.20;99.90;;;;;;10411987;28;20283;-79
2023/01/09 21:00:19;;;;;;;7.30;6.70;;;8.20;99.90;;;;;;10431967;28;20194;-79
2023/01/09 21:05:21;;;;;;;3.20;3.00;;;8.10;99.90;;;;;;10433930;28;20285;-78
2023/01/09 21:10:24;;;;;;;2.40;2.30;;;8.20;99.90;;;;;;10419513;28;20217;-80
2023/01/09 21:15:27;;;;;;;2.83;2.63;;;8.20;99.90;;;;;;10431298;28;20233;-80
2023/01/09 21:20:29;;;;;;;2.40;2.30;;;8.20;99.90;;;;;;10422578;28;20567;-81
2023/01/09 21:25:32;;;;;;;2.27;2.17;;;8.30;99.90;;;;;;10427192;28;20222;-81
2023/01/09 21:30:34;;;;;;;2.40;2.20;;;8.30;99.90;;;;;;10432189;28;20212;-82
2023/01/09 21:35:37;;;;;;;2.67;2.47;;;8.40;99.90;;;;;;10407632;28;20271;-81
2023/01/09 21:40:40;;;;;;;3.10;2.90;;;8.40;99.90;;;;;;10427735;28;20220;-81
2023/01/09 21:51:04;;;;;;;3.40;3.10;;;8.50;99.90;;;;;;10403346;28;20232;-82
2023/01/09 21:56:08;;;;;;;5.20;3.83;;;8.60;99.90;;;;;;10407338;28;20701;-81
2023/01/09 22:01:10;;;;;;;2.90;2.80;;;8.70;99.90;;;;;;10422740;28;20200;-81
2023/01/09 22:06:12;;;;;;;7.63;6.90;;;8.70;99.90;;;;;;10412401;28;20214;-82
2023/01/09 22:11:16;;;;;;;2.63;2.53;;;8.80;99.90;;;;;;10411692;28;20926;-82
2023/01/09 22:16:19;;;;;;;3.40;2.87;;;8.80;99.90;;;;;;10419077;28;20293;-82
2023/01/09 22:21:21;;;;;;;2.53;2.33;;;8.70;99.90;;;;;;10402468;28;20255;-82
2023/01/09 22:26:24;;;;;;;2.40;2.30;;;8.80;99.90;;;;;;10402201;28;20823;-82
2023/01/09 22:31:27;;;;;;;2.80;2.70;;;8.70;99.90;;;;;;10402791;28;20216;-82
2023/01/09 22:36:30;;;;;;;4.90;2.50;;;8.70;99.90;;;;;;10398547;28;20682;-80
2023/01/09 22:41:34;;;;;;;2.83;2.60;;;8.70;99.90;;;;;;10410116;28;20226;-82
2023/01/09 22:46:36;;;;;;;3.00;2.80;;;8.70;99.90;;;;;;10402998;28;20226;-82
2023/01/09 22:51:38;;;;;;;3.10;2.90;;;8.70;99.90;;;;;;10403345;28;20206;-81
2023/01/09 22:56:41;;;;;;;3.17;2.97;;;8.80;99.90;;;;;;10419572;28;20233;-82
2023/01/09 23:01:43;;;;;;;4.67;4.23;;;8.90;99.90;;;;;;10421085;28;20718;-81
2023/01/09 23:06:52;;;;;;;3.50;3.20;;;8.90;99.90;;;;;;10408348;28;20251;-80
2023/01/09 23:12:07;;;;;;;3.60;3.33;;;8.90;99.90;;;;;;10442105;28;20198;-81
2023/01/09 23:17:11;;;;;;;3.20;3.00;;;9.00;99.90;;;;;;10435224;28;20214;-81
2023/01/09 23:22:13;;;;;;;3.57;3.27;;;9.00;99.90;;;;;;10437589;28;20576;-84
2023/01/09 23:27:16;;;;;;;2.93;2.73;;;9.00;99.90;;;;;;10422554;28;20210;-82
2023/01/09 23:32:18;;;;;;;4.37;3.00;;;9.00;99.90;;;;;;10422453;28;20190;-82
2023/01/09 23:37:20;;;;;;;2.83;2.73;;;8.90;99.90;;;;;;10430838;28;20233;-84
2023/01/09 23:47:44;;;;;;;3.90;3.50;;;8.90;99.90;;;;;;10410399;28;20670;-81
2023/01/09 23:52:47;;;;;;;3.00;2.77;;;8.90;99.90;;;;;;10411764;28;20210;-82
2023/01/09 23:57:55;;;;;;;3.00;2.80;;;8.90;99.90;;;;;;10424568;28;20193;-82
